AOP weather

Alferez FAP Alfredo Vladimir Sara Bauer Airport
Andoas, Loreto Region, PerĂº

Public forecast

Using degrees Celsius for public forecast. Weather courtesy of forecast.io.

METAR (pilot weather report)

Report is more than 6 hours old.

Closest report is Coronel E Carvajal Airport, 103.6 nm (191.9 km) WNW. Retrieved 2019/02/22 23:00 UTC (12 hours ago):

SEMC 222300Z 19004KT 9999 SCT026 BKN200 24/21 Q1015 RMK A3000

TAF (pilot weather forecast)

Forecast is more than 12 hours old.

Closest forecast is Rio Amazonas Airport, 123.2 nm (228.2 km) NW. Retrieved 2018/07/13 18:03 UTC (7 months ago):

TAF TAF SCFA 131625Z 1318/1418 21010KT 9999 FEW0LVA0857 131800 GG EBBRYZYX EBBRYZYZ KMKMYTYX KWBCYMYX MPLBYFYX MPTOYMYX 131800 SEQUYZYX SAEQ01 SEQU 131800 RRA METAR SESM 131800Z 33004KT 9999 SCT020 OVC100 23/17 Q1021 RMK A3017